Terminal Aerodrome Forecast
Issued by NWS Melbourne, FL

Home | Current Version | Previous Version | Text Only | Print | Product List | Glossary On
Versions: 1 2 3 4 5 6 7 8 9 10 11 12
853
FTUS42 KMLB 221737
TAFVRB
TAF
KVRB 221737Z 2218/2318 11012G18KT P6SM FEW025
     FM230200 10005KT P6SM SKC
     FM231500 12011KT P6SM FEW030 SCT050=

USA.gov is the U.S. government's official web portal to all federal, state and local government web resources and services.